Погода Марсана 2 недели

Аура, Мальта

15 - 28 июля
  • 15июля
    Сегодня
    +25°
    +35°
    Ясно и безоблачно
    ВремяПогодаТемператураВлажностьДавлениеВетер, м/сВероятность осадков
    02:00Ясно и безоблачно+27°C75 %759 мм2.1 м/с1 %
    05:00Ясно и безоблачно+26°C90 %758 мм2.0 м/с1 %
    08:00Ясно и безоблачно+30°C76 %759 мм2.5 м/с1 %
    11:00Ясно и безоблачно+34°C42 %759 мм3.5 м/с1 %
    14:00Ясно и безоблачно+35°C44 %759 мм3.5 м/с1 %
    17:00Ясно и безоблачно+34°C48 %759 мм3.8 м/с1 %
    20:00Ясно и безоблачно+30°C62 %759 мм3.4 м/с1 %
    23:00Ясно и безоблачно+28°C73 %759 мм2.6 м/с1 %
  • 16июля
    Вторник
    +25°
    +36°
    Ясно и безоблачно
    ВремяПогодаТемператураВлажностьДавлениеВетер, м/сВероятность осадков
    02:00Ясно и безоблачно+26°C86 %759 мм2.3 м/с1 %
    05:00Ясно и безоблачно+26°C95 %759 мм2.6 м/с1 %
    08:00Ясно и безоблачно+29°C82 %759 мм2.8 м/с1 %
    11:00Ясно и безоблачно+34°C51 %760 мм3.4 м/с1 %
    14:00Ясно и безоблачно+35°C43 %759 мм4.1 м/с1 %
    17:00Ясно и безоблачно+34°C47 %759 мм3.8 м/с1 %
    20:00Ясно и безоблачно+30°C67 %759 мм4.0 м/с1 %
    23:00Ясно и безоблачно+28°C78 %759 мм3.4 м/с1 %
  • 17июля
    Среда
    +25°
    +36°
    Ясно и безоблачно
    ВремяПогодаТемператураВлажностьДавлениеВетер, м/сВероятность осадков
    02:00Ясно и безоблачно+26°C86 %759 мм2.5 м/с1 %
    05:00Ясно и безоблачно+25°C94 %759 мм1.1 м/с1 %
    08:00Ясно и безоблачно+29°C75 %760 мм2.1 м/с1 %
    11:00Ясно и безоблачно+34°C42 %760 мм3.8 м/с1 %
    14:00Ясно и безоблачно+35°C33 %760 мм3.7 м/с1 %
    17:00Ясно и безоблачно+35°C40 %760 мм3.4 м/с1 %
    20:00Ясно и безоблачно+31°C56 %760 мм2.6 м/с1 %
    23:00Ясно и безоблачно+28°C70 %761 мм1.9 м/с1 %
  • 18июля
    Четверг
    +25°
    +36°
    Ясно и безоблачно
    ВремяПогодаТемператураВлажностьДавлениеВетер, м/сВероятность осадков
    02:00Ясно и безоблачно+27°C79 %760 мм1.9 м/с1 %
    05:00Ясно и безоблачно+26°C89 %760 мм2.1 м/с1 %
    08:00Ясно и безоблачно+30°C74 %761 мм2.0 м/с1 %
    11:00Ясно и безоблачно+34°C35 %761 мм2.7 м/с1 %
    14:00Ясно и безоблачно+35°C34 %761 мм3.2 м/с1 %
    17:00Ясно и безоблачно+35°C35 %760 мм3.4 м/с1 %
    20:00Ясно и безоблачно+31°C48 %760 мм2.4 м/с1 %
    23:00Ясно и безоблачно+28°C81 %761 мм2.8 м/с1 %
  • 19июля
    Пятница
    +26°
    +35°
    Ясно и безоблачно
    ВремяПогодаТемператураВлажностьДавлениеВетер, м/сВероятность осадков
    02:00Ясно и безоблачно+27°C88 %760 мм1.9 м/с2 %
    05:00Ясно и безоблачно+26°C92 %759 мм2.0 м/с2 %
    08:00Ясно и безоблачно+30°C79 %760 мм2.5 м/с2 %
    11:00Ясно и безоблачно+34°C36 %760 мм3.6 м/с2 %
    14:00Ясно и безоблачно+35°C35 %760 мм3.5 м/с2 %
    17:00Ясно и безоблачно+35°C41 %759 мм3.5 м/с2 %
    20:00Ясно и безоблачно+31°C59 %759 мм3.4 м/с2 %
    23:00Ясно и безоблачно+29°C65 %759 мм3.0 м/с2 %
Мы используем cookies
Соглашаюсь